createdAt,value
2022-08-07T00:00:59.655Z,49.07
2022-08-07T00:04:01.571Z,49.46
2022-08-07T00:07:05.498Z,49.07
2022-08-07T00:10:26.325Z,47.54
2022-08-07T00:13:29.430Z,47.75
2022-08-07T00:16:31.247Z,48.27
2022-08-07T00:20:00.536Z,48.73
2022-08-07T00:22:55.729Z,48.92
2022-08-07T00:26:02.823Z,49.33
2022-08-07T00:29:15.324Z,49.09
2022-08-07T00:32:18.737Z,48.76
2022-08-07T00:35:30.509Z,48.10
2022-08-07T00:38:34.131Z,48.05
2022-08-07T00:41:37.311Z,48.15
2022-08-07T00:44:47.308Z,48.83
2022-08-07T00:48:08.802Z,48.87
2022-08-07T00:51:13.901Z,49.31
2022-08-07T00:54:16.310Z,49.76
2022-08-07T00:57:26.630Z,49.62
2022-08-07T01:00:35.673Z,49.85
2022-08-07T01:03:57.127Z,49.75
2022-08-07T01:06:59.578Z,50.03
2022-08-07T01:10:06.300Z,49.97
2022-08-07T01:13:16.344Z,50.75
2022-08-07T01:16:30.303Z,50.46
2022-08-07T01:19:34.475Z,50.76
2022-08-07T01:22:57.793Z,50.78
2022-08-07T01:26:07.936Z,51.35
2022-08-07T01:29:15.759Z,50.04
2022-08-07T01:32:18.243Z,49.93
2022-08-07T01:35:24.454Z,50.79
2022-08-07T01:38:29.284Z,51.38
2022-08-07T01:41:36.332Z,51.77
2022-08-07T01:44:39.092Z,51.47
2022-08-07T01:48:19.912Z,51.82
2022-08-07T01:51:24.331Z,51.87
2022-08-07T01:54:36.769Z,52.17
2022-08-07T01:58:06.407Z,52.07
2022-08-07T02:01:58.758Z,52.46
2022-08-07T02:04:56.022Z,52.78
2022-08-07T02:08:03.018Z,53.13
2022-08-07T02:11:30.917Z,53.72
2022-08-07T02:14:40.796Z,54.02
2022-08-07T02:17:51.891Z,54.65
2022-08-07T02:20:57.837Z,54.75
2022-08-07T02:24:00.512Z,54.87
2022-08-07T02:27:04.357Z,55.56
2022-08-07T02:30:08.714Z,55.01
2022-08-07T02:33:13.961Z,55.83
2022-08-07T02:36:30.419Z,56.18
2022-08-07T02:39:43.979Z,56.19
2022-08-07T02:43:07.900Z,56.16
2022-08-07T02:46:11.596Z,56.44
2022-08-07T02:49:28.825Z,56.10
2022-08-07T02:53:03.329Z,56.83
2022-08-07T02:56:20.931Z,56.70
2022-08-07T02:59:27.710Z,55.91
2022-08-07T03:02:35.565Z,56.14
2022-08-07T03:05:39.426Z,55.97
2022-08-07T03:08:43.770Z,56.64
2022-08-07T03:11:51.936Z,56.93
2022-08-07T03:15:07.515Z,56.81
2022-08-07T03:18:17.490Z,57.50
2022-08-07T03:21:23.633Z,57.82
2022-08-07T03:24:27.761Z,58.33
2022-08-07T03:28:09.182Z,58.07
2022-08-07T03:31:17.350Z,57.99
2022-08-07T03:34:22.053Z,57.79
2022-08-07T03:37:28.984Z,57.49
2022-08-07T03:40:36.940Z,57.80
2022-08-07T03:43:57.506Z,58.11
2022-08-07T03:47:12.960Z,57.79
2022-08-07T03:50:23.177Z,57.94
2022-08-07T03:54:01.903Z,57.46
2022-08-07T03:57:03.582Z,57.77
2022-08-07T04:00:10.499Z,57.79
2022-08-07T04:03:21.733Z,57.41
2022-08-07T04:06:37.118Z,57.80
2022-08-07T04:09:50.173Z,58.29
2022-08-07T04:12:57.363Z,58.73
2022-08-07T04:16:01.454Z,58.51
2022-08-07T04:19:12.739Z,59.14
2022-08-07T04:22:29.479Z,59.09
2022-08-07T04:25:39.300Z,59.51
2022-08-07T04:28:43.085Z,59.24
2022-08-07T04:32:03.367Z,59.98
2022-08-07T04:35:11.490Z,60.38
2022-08-07T04:38:15.656Z,60.65
2022-08-07T04:41:22.249Z,60.27
2022-08-07T04:44:26.799Z,60.40
2022-08-07T04:47:56.903Z,61.03
2022-08-07T04:51:10.821Z,61.23
2022-08-07T04:54:30.124Z,61.21
2022-08-07T04:58:12.970Z,61.27
2022-08-07T05:01:30.281Z,61.05
2022-08-07T05:05:02.162Z,60.99
2022-08-07T05:08:14.465Z,60.95
2022-08-07T05:11:57.301Z,61.14
2022-08-07T05:14:59.375Z,60.88
2022-08-07T05:18:10.387Z,60.99
2022-08-07T05:21:18.497Z,60.50
2022-08-07T05:24:41.859Z,61.17
2022-08-07T05:28:03.411Z,61.09
2022-08-07T05:31:16.954Z,61.09
2022-08-07T05:34:21.343Z,61.46
2022-08-07T05:37:29.335Z,61.69
2022-08-07T05:40:50.391Z,61.48
2022-08-07T05:44:12.720Z,61.52
2022-08-07T05:47:20.921Z,60.78
2022-08-07T05:50:43.074Z,60.51
2022-08-07T05:54:13.621Z,60.82
2022-08-07T05:57:09.936Z,60.19
2022-08-07T06:00:16.347Z,60.58
2022-08-07T06:03:53.874Z,60.40
2022-08-07T06:06:56.635Z,59.63
2022-08-07T06:10:06.610Z,59.24
2022-08-07T06:13:17.833Z,59.57
2022-08-07T06:16:23.713Z,59.57
2022-08-07T06:19:51.752Z,59.23
2022-08-07T06:23:02.226Z,58.00
2022-08-07T06:26:20.271Z,57.22
2022-08-07T06:29:27.706Z,57.09
2022-08-07T06:32:32.718Z,56.62
2022-08-07T06:35:45.497Z,56.83
2022-08-07T06:38:59.495Z,56.35
2022-08-07T06:42:34.869Z,55.39
2022-08-07T06:45:49.053Z,55.29
2022-08-07T06:48:57.386Z,55.04
2022-08-07T06:52:13.620Z,54.60
2022-08-07T06:56:00.365Z,53.73
2022-08-07T07:00:13.649Z,53.57
2022-08-07T07:02:54.230Z,52.33
2022-08-07T07:06:10.932Z,52.27
2022-08-07T07:09:36.197Z,51.71
2022-08-07T07:12:58.873Z,50.54
2022-08-07T07:16:11.939Z,50.13
2022-08-07T07:19:56.131Z,49.05
2022-08-07T07:24:09.176Z,48.33
2022-08-07T07:26:34.780Z,47.29
2022-08-07T07:33:41.489Z,46.39
2022-08-07T07:36:54.175Z,45.11
2022-08-07T07:40:02.627Z,44.58
2022-08-07T07:43:18.747Z,44.14
2022-08-07T07:46:54.722Z,43.24
2022-08-07T07:50:33.020Z,43.47
2022-08-07T07:53:27.602Z,42.02
2022-08-07T07:56:34.106Z,41.80
2022-08-07T07:59:52.342Z,42.02
2022-08-07T08:03:04.510Z,41.50
2022-08-07T08:06:13.030Z,41.16
2022-08-07T08:09:20.658Z,40.30
2022-08-07T08:12:52.500Z,40.28
2022-08-07T08:15:58.920Z,40.65
2022-08-07T08:19:17.312Z,39.82
2022-08-07T08:22:55.803Z,38.86
2022-08-07T08:26:19.841Z,38.43
2022-08-07T08:29:22.629Z,38.42
2022-08-07T08:32:38.387Z,38.77
2022-08-07T08:35:46.961Z,38.23
2022-08-07T08:38:54.852Z,37.87
2022-08-07T08:42:04.993Z,37.42
2022-08-07T08:45:41.934Z,36.80
2022-08-07T08:49:10.305Z,36.49
2022-08-07T08:52:30.402Z,36.14
2022-08-07T08:55:54.371Z,36.07
2022-08-07T08:59:16.455Z,35.55
2022-08-07T09:02:36.378Z,36.73
2022-08-07T09:05:56.310Z,35.58
2022-08-07T09:09:13.489Z,35.20
2022-08-07T09:12:35.033Z,35.03
2022-08-07T09:16:22.942Z,35.34
2022-08-07T09:19:59.614Z,34.75
2022-08-07T09:24:33.684Z,33.19
2022-08-07T09:27:24.664Z,33.37
2022-08-07T09:30:54.917Z,32.45
2022-08-07T09:33:58.236Z,32.60
2022-08-07T09:37:04.868Z,32.83
2022-08-07T09:40:24.688Z,32.44
2022-08-07T09:44:06.585Z,32.82
2022-08-07T09:47:50.042Z,33.09
2022-08-07T09:51:02.074Z,32.85
2022-08-07T09:54:08.331Z,32.59
2022-08-07T09:57:46.481Z,32.72
2022-08-07T10:05:29.367Z,31.98
2022-08-07T10:09:01.277Z,31.81
2022-08-07T10:12:28.481Z,31.03
2022-08-07T10:16:15.113Z,30.83
2022-08-07T10:19:46.683Z,30.06
2022-08-07T10:23:10.556Z,30.87
2022-08-07T10:27:10.233Z,29.25
2022-08-07T10:30:36.961Z,30.56
2022-08-07T10:34:06.603Z,29.22
2022-08-07T10:38:00.398Z,30.09
2022-08-07T10:41:09.354Z,29.12
2022-08-07T10:44:39.037Z,29.51
2022-08-07T10:48:03.066Z,29.45
2022-08-07T10:51:39.138Z,28.99
2022-08-07T10:54:53.464Z,29.00
2022-08-07T10:58:12.873Z,28.30
2022-08-07T11:01:25.697Z,28.80
2022-08-07T11:05:15.435Z,28.74
2022-08-07T11:08:40.992Z,28.62
2022-08-07T11:12:01.675Z,27.69
2022-08-07T11:15:17.361Z,27.86
2022-08-07T11:18:36.983Z,27.75
2022-08-07T11:22:03.610Z,27.47
2022-08-07T11:25:06.834Z,27.57
2022-08-07T11:28:36.201Z,26.61
2022-08-07T11:32:12.145Z,27.08
2022-08-07T11:35:26.800Z,27.19
2022-08-07T11:38:59.273Z,26.73
2022-08-07T11:42:18.962Z,25.94
2022-08-07T11:45:37.870Z,25.80
2022-08-07T11:49:50.696Z,26.07
2022-08-07T11:52:28.950Z,25.23
2022-08-07T11:56:09.136Z,25.45
2022-08-07T12:00:12.602Z,24.54
2022-08-07T12:03:41.692Z,24.67
2022-08-07T12:06:55.354Z,24.71
2022-08-07T12:10:14.013Z,24.52
2022-08-07T12:13:35.267Z,23.55
2022-08-07T12:17:20.289Z,24.11
2022-08-07T12:20:43.446Z,22.94
2022-08-07T12:24:07.053Z,23.82
2022-08-07T12:27:18.632Z,23.07
2022-08-07T12:30:34.775Z,23.59
2022-08-07T12:34:00.919Z,23.19
2022-08-07T12:37:00.838Z,22.79
2022-08-07T12:40:05.038Z,22.85
2022-08-07T12:44:01.966Z,23.07
2022-08-07T12:47:09.749Z,23.90
2022-08-07T12:50:34.295Z,23.02
2022-08-07T12:54:37.096Z,23.45
2022-08-07T12:57:39.248Z,23.37
2022-08-07T13:01:32.530Z,23.11
2022-08-07T13:05:01.654Z,22.28
2022-08-07T13:08:34.074Z,22.83
2022-08-07T13:12:03.518Z,22.48
2022-08-07T13:15:36.448Z,22.95
2022-08-07T13:18:59.062Z,22.37
2022-08-07T13:22:19.432Z,22.64
2022-08-07T13:25:34.625Z,21.81
2022-08-07T13:28:47.033Z,22.03
2022-08-07T13:32:00.177Z,22.17
2022-08-07T13:35:25.633Z,21.75
2022-08-07T13:39:04.994Z,21.01
2022-08-07T13:42:18.872Z,21.59
2022-08-07T13:46:11.069Z,21.90
2022-08-07T13:48:51.934Z,21.21
2022-08-07T13:52:27.194Z,20.70
2022-08-07T13:55:36.967Z,21.40
2022-08-07T13:59:00.604Z,21.95
2022-08-07T14:02:12.956Z,21.62
2022-08-07T14:05:23.198Z,21.27
2022-08-07T14:08:25.585Z,21.35
2022-08-07T14:11:53.650Z,20.47
2022-08-07T14:14:56.243Z,20.24
2022-08-07T14:18:16.085Z,20.20
2022-08-07T14:22:02.406Z,19.88
2022-08-07T14:24:53.768Z,20.17
2022-08-07T14:28:11.359Z,20.11
2022-08-07T14:31:16.438Z,20.02
2022-08-07T14:34:27.249Z,19.88
2022-08-07T14:41:04.179Z,19.34
2022-08-07T14:44:11.753Z,18.77
2022-08-07T14:47:18.772Z,18.93
2022-08-07T14:50:23.470Z,19.76
2022-08-07T14:54:08.704Z,19.74
2022-08-07T14:56:54.299Z,19.89
2022-08-07T15:00:04.272Z,19.71
2022-08-07T15:03:16.609Z,19.59
2022-08-07T15:06:25.109Z,19.72
2022-08-07T15:09:58.332Z,19.16
2022-08-07T15:12:54.635Z,18.92
2022-08-07T15:16:02.749Z,18.82
2022-08-07T15:19:16.713Z,19.10
2022-08-07T15:22:29.405Z,19.32
2022-08-07T15:25:39.503Z,18.89
2022-08-07T15:28:55.552Z,18.86
2022-08-07T15:36:00.721Z,18.98
2022-08-07T15:46:04.513Z,19.53
2022-08-07T15:50:05.789Z,18.91
2022-08-07T15:52:51.677Z,19.18
2022-08-07T15:56:02.120Z,19.26
2022-08-07T15:59:16.640Z,19.29
2022-08-07T16:02:32.401Z,18.85
2022-08-07T16:05:34.973Z,19.68
2022-08-07T16:08:45.479Z,19.09
2022-08-07T16:12:15.294Z,19.79
2022-08-07T16:15:57.208Z,18.88
2022-08-07T16:19:42.910Z,19.22
2022-08-07T16:23:13.429Z,19.01
2022-08-07T16:26:59.395Z,19.26
2022-08-07T16:30:31.973Z,19.69
2022-08-07T16:34:06.151Z,19.93
2022-08-07T16:38:03.368Z,19.64
2022-08-07T16:41:12.295Z,19.88
2022-08-07T16:45:23.300Z,19.81
2022-08-07T16:49:04.340Z,19.79
2022-08-07T16:52:51.930Z,20.31
2022-08-07T16:55:47.859Z,20.65
2022-08-07T16:59:14.871Z,20.45
2022-08-07T17:02:52.910Z,20.60
2022-08-07T17:06:30.138Z,20.48
2022-08-07T17:10:05.157Z,20.20
2022-08-07T17:13:41.532Z,20.34
2022-08-07T17:17:02.552Z,20.67
2022-08-07T17:20:20.924Z,20.84
2022-08-07T17:23:32.483Z,21.14
2022-08-07T17:26:58.110Z,21.38
2022-08-07T17:30:14.047Z,21.27
2022-08-07T17:34:09.558Z,21.38
2022-08-07T17:37:08.985Z,21.86
2022-08-07T17:40:30.450Z,21.89
2022-08-07T17:44:01.621Z,21.68
2022-08-07T17:47:42.759Z,22.32
2022-08-07T17:50:47.056Z,22.50
2022-08-07T17:54:11.489Z,22.50
2022-08-07T17:57:56.522Z,22.41
2022-08-07T18:00:54.423Z,23.21
2022-08-07T18:04:17.484Z,22.31
2022-08-07T18:07:28.723Z,23.47
2022-08-07T18:11:53.670Z,23.19
2022-08-07T18:14:24.233Z,23.64
2022-08-07T18:18:47.544Z,23.34
2022-08-07T18:21:42.191Z,24.10
2022-08-07T18:24:40.657Z,23.84
2022-08-07T18:28:21.556Z,24.20
2022-08-07T18:32:03.313Z,24.20
2022-08-07T18:35:26.136Z,24.61
2022-08-07T18:38:55.492Z,24.80
2022-08-07T18:42:20.996Z,25.17
2022-08-07T18:46:25.819Z,25.30
2022-08-07T18:50:19.686Z,25.66
2022-08-07T18:53:05.769Z,25.92
2022-08-07T18:56:20.166Z,26.23
2022-08-07T18:59:59.364Z,26.22
2022-08-07T19:03:17.410Z,26.47
2022-08-07T19:06:57.971Z,27.21
2022-08-07T19:10:14.906Z,26.94
2022-08-07T19:13:27.487Z,27.26
2022-08-07T19:17:05.783Z,28.36
2022-08-07T19:20:28.904Z,27.97
2022-08-07T19:23:58.874Z,27.91
2022-08-07T19:28:58.737Z,27.34
2022-08-07T19:31:00.216Z,27.36
2022-08-07T19:33:58.427Z,27.77
2022-08-07T19:37:10.336Z,28.07
2022-08-07T19:40:31.281Z,28.25
2022-08-07T19:43:44.031Z,28.25
2022-08-07T19:46:58.062Z,29.03
2022-08-07T19:50:44.552Z,29.14
2022-08-07T19:54:32.943Z,29.85
2022-08-07T19:57:59.983Z,30.02
2022-08-07T20:00:29.005Z,30.51
2022-08-07T20:03:35.708Z,30.67
2022-08-07T20:06:43.002Z,30.77
2022-08-07T20:10:36.645Z,30.87
2022-08-07T20:13:23.670Z,30.85
2022-08-07T20:16:35.719Z,31.11
2022-08-07T20:19:49.457Z,31.23
2022-08-07T20:23:23.339Z,31.28
2022-08-07T20:26:45.190Z,30.99
2022-08-07T20:29:56.955Z,30.78
2022-08-07T20:33:04.905Z,31.18
2022-08-07T20:36:12.090Z,31.15
2022-08-07T20:40:01.689Z,31.68
2022-08-07T20:42:56.275Z,31.99
2022-08-07T20:46:26.519Z,31.74
2022-08-07T20:50:00.773Z,31.84
2022-08-07T20:52:51.196Z,31.69
2022-08-07T20:55:59.773Z,32.16
2022-08-07T20:59:05.110Z,31.99
2022-08-07T21:02:38.466Z,31.91
2022-08-07T21:05:56.449Z,31.76
2022-08-07T21:09:07.500Z,31.89
2022-08-07T21:12:16.753Z,32.29
2022-08-07T21:15:47.501Z,32.67
2022-08-07T21:19:02.606Z,33.19
2022-08-07T21:22:06.078Z,32.95
2022-08-07T21:25:17.819Z,32.80
2022-08-07T21:28:48.804Z,32.90
2022-08-07T21:32:47.200Z,32.39
2022-08-07T21:36:03.945Z,32.29
2022-08-07T21:39:45.191Z,32.43
2022-08-07T21:42:52.842Z,33.16
2022-08-07T21:46:08.583Z,33.12
2022-08-07T21:50:02.348Z,33.37
2022-08-07T21:53:31.227Z,33.36
2022-08-07T21:56:50.641Z,33.91
2022-08-07T22:00:22.723Z,34.30
2022-08-07T22:03:42.141Z,34.25
2022-08-07T22:06:49.853Z,34.17
2022-08-07T22:10:00.451Z,33.52
2022-08-07T22:13:09.473Z,33.51
2022-08-07T22:16:38.346Z,33.60
2022-08-07T22:19:57.223Z,34.13
2022-08-07T22:23:21.754Z,34.31
2022-08-07T22:26:44.677Z,36.03
2022-08-07T22:29:56.646Z,36.69
2022-08-07T22:33:06.262Z,37.88
2022-08-07T22:36:52.543Z,38.27
2022-08-07T22:40:09.085Z,38.33
2022-08-07T22:43:15.793Z,38.34
2022-08-07T22:47:03.025Z,37.92
2022-08-07T22:49:55.027Z,38.42
2022-08-07T22:54:06.326Z,38.41
2022-08-07T22:57:25.758Z,39.05
2022-08-07T23:01:10.585Z,39.96
2022-08-07T23:04:28.932Z,39.43
2022-08-07T23:07:42.906Z,40.34
2022-08-07T23:11:17.196Z,40.27
2022-08-07T23:14:56.870Z,39.95
2022-08-07T23:18:32.024Z,40.44
2022-08-07T23:21:56.438Z,40.36
2022-08-07T23:25:17.055Z,40.55
2022-08-07T23:28:44.256Z,40.85
2022-08-07T23:34:22.386Z,40.51
2022-08-07T23:35:37.711Z,40.59
2022-08-07T23:39:08.517Z,41.02
2022-08-07T23:43:03.186Z,40.30
2022-08-07T23:46:51.683Z,40.08
2022-08-07T23:51:01.307Z,40.50
2022-08-07T23:54:44.028Z,40.06
2022-08-07T23:58:04.280Z,39.51
